Time;durP1;ratioP1;P1;durP2;ratioP2;P2;SDS_P1;SDS_P2;PMS_P1;PMS_P2;Temp;Humidity;BMP_temperature;BMP_pressure;BME280_temperature;BME280_humidity;BME280_pressure;Samples;Min_cycle;Max_cycle;Signal;HPM_P1;HPM_P2
2022/01/13 00:01:57;;;;;;;38.42;16.17;;;0.90;99.90;;;;;;4952305;29;20058;-87
2022/01/13 00:04:23;;;;;;;37.00;15.60;;;0.80;99.90;;;;;;4953686;29;20036;-88
2022/01/13 00:06:50;;;;;;;42.63;17.48;;;0.80;99.90;;;;;;4958667;29;20034;-87
2022/01/13 00:09:17;;;;;;;40.05;15.75;;;0.80;99.90;;;;;;4958826;29;20042;-87
2022/01/13 00:11:46;;;;;;;38.28;15.82;;;0.80;99.90;;;;;;4958614;29;20028;-88
2022/01/13 00:19:45;;;;;;;41.33;17.80;;;0.80;99.90;;;;;;4938898;29;20043;-87
2022/01/13 00:24:54;;;;;;;42.08;17.73;;;0.70;99.90;;;;;;4942145;29;20020;-87
2022/01/13 00:27:23;;;;;;;40.53;16.73;;;0.70;99.90;;;;;;4936891;29;20134;-88
2022/01/13 00:29:49;;;;;;;45.60;17.70;;;0.70;99.90;;;;;;4934642;29;20088;-88
2022/01/13 00:32:15;;;;;;;45.38;16.50;;;0.70;99.90;;;;;;4952195;29;20039;-88
2022/01/13 00:34:44;;;;;;;43.47;17.73;;;0.60;99.90;;;;;;4956602;29;20011;-88
2022/01/13 00:37:10;;;;;;;38.95;16.60;;;0.60;99.90;;;;;;4972289;29;20032;-88
2022/01/13 00:39:36;;;;;;;42.80;16.77;;;0.60;99.90;;;;;;4954403;29;20075;-87
2022/01/13 00:42:02;;;;;;;39.05;17.50;;;0.60;99.90;;;;;;4953349;29;20047;-88
2022/01/13 00:44:34;;;;;;;48.20;18.42;;;0.60;99.90;;;;;;4953864;29;20023;-87
2022/01/13 00:47:01;;;;;;;50.10;17.80;;;0.60;99.90;;;;;;4944222;29;20048;-87
2022/01/13 00:49:28;;;;;;;38.20;16.92;;;0.60;99.90;;;;;;4955244;29;20028;-87
2022/01/13 00:51:54;;;;;;;46.17;18.88;;;0.50;99.90;;;;;;4943290;29;20040;-88
2022/01/13 00:54:20;;;;;;;45.72;17.63;;;0.60;99.90;;;;;;4938976;29;20012;-87
2022/01/13 00:56:46;;;;;;;45.05;16.75;;;0.60;99.90;;;;;;4939430;29;20072;-87
2022/01/13 00:59:14;;;;;;;39.63;16.92;;;0.60;99.90;;;;;;4940411;29;20140;-87
2022/01/13 01:01:51;;;;;;;41.08;18.30;;;0.60;99.90;;;;;;4950447;29;20063;-87
2022/01/13 01:04:18;;;;;;;41.95;18.13;;;0.60;99.90;;;;;;4959297;29;20106;-86
2022/01/13 01:06:44;;;;;;;46.63;18.80;;;0.60;99.90;;;;;;4958729;29;20063;-86
2022/01/13 01:09:15;;;;;;;42.15;17.98;;;0.60;99.90;;;;;;4959385;29;20011;-87
2022/01/13 01:11:43;;;;;;;41.75;17.52;;;0.60;99.90;;;;;;4947080;29;20032;-86
2022/01/13 01:14:11;;;;;;;42.60;17.08;;;0.60;99.90;;;;;;4923759;29;20056;-87
2022/01/13 01:16:37;;;;;;;46.55;19.00;;;0.70;99.90;;;;;;4952927;29;20067;-86
2022/01/13 01:19:07;;;;;;;47.63;19.33;;;0.70;99.90;;;;;;4959095;29;20035;-87
2022/01/13 01:22:32;;;;;;;46.42;18.65;;;0.80;99.90;;;;;;4929822;29;20016;-87
2022/01/13 01:26:53;;;;;;;49.95;18.98;;;0.90;99.90;;;;;;4954023;29;20028;-86
2022/01/13 01:31:50;;;;;;;49.92;20.42;;;1.00;99.90;;;;;;4953830;29;20027;-89
2022/01/13 01:35:19;;;;;;;51.53;19.75;;;1.00;99.90;;;;;;4945352;29;20055;-85
2022/01/13 01:37:16;;;;;;;46.15;18.95;;;1.00;99.90;;;;;;4944632;29;20035;-86
2022/01/13 01:39:43;;;;;;;44.30;19.50;;;1.10;99.90;;;;;;4962181;29;20011;-87
2022/01/13 01:42:09;;;;;;;46.38;19.38;;;1.10;99.90;;;;;;4962419;29;20040;-87
2022/01/13 01:44:42;;;;;;;47.53;19.55;;;1.10;99.90;;;;;;4962051;29;20040;-87
2022/01/13 01:47:13;;;;;;;51.10;20.42;;;1.10;99.90;;;;;;4945287;29;20099;-87
2022/01/13 01:49:47;;;;;;;47.58;19.85;;;1.10;99.90;;;;;;4953317;29;20484;-87
2022/01/13 01:52:18;;;;;;;51.70;21.40;;;1.10;99.90;;;;;;4957571;29;20047;-85
2022/01/13 01:54:45;;;;;;;47.42;20.27;;;1.10;99.90;;;;;;4949437;29;20036;-88
2022/01/13 01:57:11;;;;;;;49.28;21.10;;;1.10;99.90;;;;;;4938024;29;20052;-87
2022/01/13 01:59:40;;;;;;;48.42;21.75;;;1.10;99.90;;;;;;4953517;29;20040;-87
2022/01/13 02:02:06;;;;;;;47.13;20.15;;;1.10;99.90;;;;;;4948781;29;20539;-88
2022/01/13 02:04:33;;;;;;;48.40;19.63;;;1.10;99.90;;;;;;4931598;29;20032;-86
2022/01/13 02:07:02;;;;;;;53.50;21.73;;;1.10;99.90;;;;;;4923037;29;20032;-88
2022/01/13 02:09:30;;;;;;;48.80;20.50;;;1.10;99.90;;;;;;4932682;29;20032;-88
2022/01/13 02:11:58;;;;;;;50.50;21.20;;;1.10;99.90;;;;;;4932413;29;20097;-88
2022/01/13 02:17:06;;;;;;;51.65;20.75;;;1.10;99.90;;;;;;4938593;29;20072;-88
2022/01/13 02:19:34;;;;;;;50.40;20.25;;;1.10;99.90;;;;;;4925940;29;20033;-88
2022/01/13 02:22:00;;;;;;;53.53;20.58;;;1.10;99.90;;;;;;4930644;29;20099;-87
2022/01/13 02:24:27;;;;;;;54.17;21.10;;;1.10;99.90;;;;;;4939373;29;20040;-87
2022/01/13 02:26:54;;;;;;;53.40;21.13;;;1.00;99.90;;;;;;4931371;29;20028;-86
2022/01/13 02:29:20;;;;;;;52.13;21.17;;;1.00;99.90;;;;;;4930693;29;20476;-87
2022/01/13 02:31:45;;;;;;;62.03;21.45;;;1.00;99.90;;;;;;4928167;29;20036;-89
2022/01/13 02:34:11;;;;;;;54.13;21.85;;;1.00;99.90;;;;;;4928973;29;20035;-87
2022/01/13 02:36:38;;;;;;;56.30;21.80;;;1.10;99.90;;;;;;4917522;29;20058;-88
2022/01/13 02:39:06;;;;;;;56.88;23.15;;;1.00;99.90;;;;;;4957606;29;20030;-87
2022/01/13 02:41:32;;;;;;;57.08;22.95;;;1.00;99.90;;;;;;4947979;29;20063;-87
2022/01/13 02:44:00;;;;;;;54.97;22.05;;;1.00;99.90;;;;;;4943077;29;20067;-86
2022/01/13 02:49:10;;;;;;;49.20;20.95;;;1.00;99.90;;;;;;4939168;29;20044;-87
2022/01/13 02:51:38;;;;;;;55.05;21.75;;;1.00;99.90;;;;;;4949471;29;20046;-87
2022/01/13 02:54:05;;;;;;;53.72;21.65;;;1.00;99.90;;;;;;4957227;29;20038;-86
2022/01/13 02:56:33;;;;;;;57.70;23.33;;;1.00;99.90;;;;;;4957878;29;20585;-87
2022/01/13 02:58:58;;;;;;;51.75;21.80;;;1.00;99.90;;;;;;4947232;29;20020;-87
2022/01/13 03:01:24;;;;;;;51.42;21.48;;;1.00;99.90;;;;;;4939557;29;20127;-87
2022/01/13 03:03:50;;;;;;;55.08;22.25;;;1.00;99.90;;;;;;4928932;29;20030;-86
2022/01/13 03:06:23;;;;;;;56.13;21.65;;;1.00;99.90;;;;;;4934787;29;20044;-89
2022/01/13 03:08:50;;;;;;;57.40;22.10;;;1.00;99.90;;;;;;4937549;29;20068;-87
2022/01/13 03:11:17;;;;;;;52.97;22.38;;;1.10;99.90;;;;;;4944126;29;20042;-86
2022/01/13 03:13:43;;;;;;;53.53;22.00;;;1.10;99.90;;;;;;4952885;29;20058;-87
2022/01/13 03:16:12;;;;;;;52.60;22.65;;;1.10;99.90;;;;;;4929185;29;20555;-88
2022/01/13 03:18:39;;;;;;;52.92;20.92;;;1.10;99.90;;;;;;4936337;29;20092;-85
2022/01/13 03:21:06;;;;;;;50.75;21.27;;;1.10;99.90;;;;;;4941903;29;20068;-86
2022/01/13 03:23:34;;;;;;;50.72;20.48;;;1.20;99.90;;;;;;4941182;29;20020;-86
2022/01/13 03:26:00;;;;;;;55.38;21.92;;;1.20;99.90;;;;;;4940695;29;20012;-87
2022/01/13 03:28:38;;;;;;;47.00;20.23;;;1.20;99.90;;;;;;4941660;29;20100;-87
2022/01/13 03:31:07;;;;;;;47.60;20.00;;;1.20;99.90;;;;;;4935701;29;20032;-87
2022/01/13 03:33:34;;;;;;;51.38;20.40;;;1.20;99.90;;;;;;4950035;29;20076;-87
2022/01/13 03:36:02;;;;;;;52.45;20.58;;;1.10;99.90;;;;;;4948628;29;20489;-89
2022/01/13 03:38:30;;;;;;;50.42;21.17;;;1.20;99.90;;;;;;4934464;29;20591;-88
2022/01/13 03:40:56;;;;;;;52.22;19.70;;;1.20;99.90;;;;;;4931705;29;20612;-88
2022/01/13 03:43:22;;;;;;;47.00;20.92;;;1.20;99.90;;;;;;4917790;29;20032;-87
2022/01/13 03:45:48;;;;;;;50.47;20.58;;;1.20;99.90;;;;;;4925693;29;20103;-88
2022/01/13 03:48:14;;;;;;;50.83;20.35;;;1.20;99.90;;;;;;4924740;29;20024;-87
2022/01/13 03:50:41;;;;;;;53.25;21.45;;;1.20;99.90;;;;;;4925048;29;20468;-87
2022/01/13 03:53:28;;;;;;;63.15;22.17;;;1.20;99.90;;;;;;4927600;29;20676;-87
2022/01/13 03:56:04;;;;;;;48.38;20.48;;;1.20;99.90;;;;;;4928084;29;20032;-89
2022/01/13 03:58:55;;;;;;;46.88;19.92;;;1.30;99.90;;;;;;4953125;29;20051;-87
2022/01/13 04:01:38;;;;;;;50.67;20.23;;;1.20;99.90;;;;;;4945076;29;20024;-86
2022/01/13 04:04:04;;;;;;;53.83;20.92;;;1.20;99.90;;;;;;4937317;29;20122;-88
2022/01/13 04:06:37;;;;;;;48.70;20.45;;;1.20;99.90;;;;;;4938048;29;20036;-88
2022/01/13 04:09:27;;;;;;;49.25;19.00;;;1.10;99.90;;;;;;4971478;29;20036;-87
2022/01/13 04:11:53;;;;;;;50.97;20.83;;;1.20;99.90;;;;;;4945802;29;20042;-87
2022/01/13 04:14:29;;;;;;;49.10;19.33;;;1.20;99.90;;;;;;4943652;29;20091;-88
2022/01/13 04:16:57;;;;;;;52.05;20.48;;;1.20;99.90;;;;;;4933873;29;20032;-88
2022/01/13 04:19:23;;;;;;;52.00;19.73;;;1.30;99.90;;;;;;4925651;29;20028;-86
2022/01/13 04:21:49;;;;;;;50.78;20.52;;;1.30;99.90;;;;;;4924866;29;20032;-89
2022/01/13 04:24:14;;;;;;;46.58;19.80;;;1.30;99.90;;;;;;4928456;29;20028;-87
2022/01/13 04:26:43;;;;;;;46.67;20.58;;;1.30;99.90;;;;;;4950920;29;20044;-88
2022/01/13 04:31:36;;;;;;;45.88;19.02;;;1.30;99.90;;;;;;4939878;29;20029;-88
2022/01/13 04:34:02;;;;;;;44.60;19.45;;;1.30;99.90;;;;;;4928773;29;20031;-87
2022/01/13 04:36:28;;;;;;;53.38;20.45;;;1.20;99.90;;;;;;4927048;29;20032;-88
2022/01/13 04:38:54;;;;;;;48.78;19.38;;;1.20;99.90;;;;;;4927129;29;20036;-90
2022/01/13 04:41:38;;;;;;;44.90;18.95;;;1.20;99.90;;;;;;4931823;29;20068;-87
2022/01/13 04:44:24;;;;;;;47.47;19.73;;;1.20;99.90;;;;;;4936454;29;20390;-88
2022/01/13 04:46:52;;;;;;;48.35;20.58;;;1.20;99.90;;;;;;4946491;29;20036;-88
2022/01/13 04:49:19;;;;;;;49.42;19.98;;;1.30;99.90;;;;;;4954269;29;20028;-87
2022/01/13 04:51:49;;;;;;;47.97;19.95;;;1.30;99.90;;;;;;5001443;23;20048;-84
2022/01/13 04:54:17;;;;;;;51.15;20.23;;;1.30;99.90;;;;;;4940756;29;20021;-85
2022/01/13 04:59:15;;;;;;;48.83;19.50;;;1.20;99.90;;;;;;4940828;29;20024;-86
2022/01/13 05:01:41;;;;;;;49.42;19.35;;;1.20;99.90;;;;;;4933655;29;20508;-87
2022/01/13 05:04:07;;;;;;;51.45;20.13;;;1.20;99.90;;;;;;4912655;29;20036;-86
2022/01/13 05:06:34;;;;;;;49.80;20.42;;;1.20;99.90;;;;;;4931202;29;20092;-87
2022/01/13 05:09:00;;;;;;;58.33;22.23;;;1.30;99.90;;;;;;4933490;29;20037;-86
2022/01/13 05:11:27;;;;;;;46.42;20.50;;;1.20;99.90;;;;;;4933451;29;20028;-87
2022/01/13 05:13:52;;;;;;;51.00;20.20;;;1.30;99.90;;;;;;4919189;29;20069;-86
2022/01/13 05:19:18;;;;;;;54.40;20.88;;;1.30;99.90;;;;;;4931735;29;20032;-85
2022/01/13 05:24:22;;;;;;;52.63;20.65;;;1.30;99.90;;;;;;4923112;29;20047;-87
2022/01/13 05:26:47;;;;;;;53.63;21.05;;;1.30;99.90;;;;;;4923537;29;20025;-86
2022/01/13 05:29:18;;;;;;;56.53;21.45;;;1.30;99.90;;;;;;4923478;29;20080;-86
2022/01/13 05:31:46;;;;;;;53.50;19.58;;;1.30;99.90;;;;;;4923179;29;20052;-86
2022/01/13 05:34:11;;;;;;;47.45;19.77;;;1.30;99.90;;;;;;4923991;29;20325;-86
2022/01/13 05:36:37;;;;;;;53.55;21.02;;;1.30;99.90;;;;;;4923612;29;20025;-87
2022/01/13 05:39:04;;;;;;;52.85;21.35;;;1.30;99.90;;;;;;4922455;29;20045;-86
2022/01/13 05:41:33;;;;;;;55.20;21.48;;;1.30;99.90;;;;;;4916442;29;20052;-85
2022/01/13 05:44:00;;;;;;;53.03;21.00;;;1.30;99.90;;;;;;4915501;29;20053;-87
2022/01/13 05:46:26;;;;;;;56.53;21.50;;;1.40;99.90;;;;;;4920160;29;20042;-86
2022/01/13 05:48:54;;;;;;;57.22;22.33;;;1.40;99.90;;;;;;4920194;29;20033;-86
2022/01/13 05:51:21;;;;;;;59.80;22.80;;;1.40;99.90;;;;;;4920799;29;20033;-88
2022/01/13 05:53:47;;;;;;;58.83;23.60;;;1.40;99.90;;;;;;4920062;29;20020;-87
2022/01/13 05:56:13;;;;;;;59.55;22.90;;;1.40;99.90;;;;;;4915432;29;20041;-87
2022/01/13 05:58:39;;;;;;;54.80;22.15;;;1.40;99.90;;;;;;4919114;29;20028;-87
2022/01/13 06:01:05;;;;;;;57.92;21.27;;;1.30;99.90;;;;;;4932313;29;20045;-88
2022/01/13 06:03:31;;;;;;;54.53;21.42;;;1.30;99.90;;;;;;4912389;29;20059;-87
2022/01/13 06:05:57;;;;;;;55.90;23.63;;;1.30;99.90;;;;;;4913500;29;20040;-87
2022/01/13 06:08:23;;;;;;;57.65;23.13;;;1.20;99.90;;;;;;4913803;29;20067;-87
2022/01/13 06:10:49;;;;;;;62.58;23.23;;;1.20;99.90;;;;;;4911421;29;20457;-87
2022/01/13 06:13:15;;;;;;;58.53;22.00;;;1.30;99.90;;;;;;4910456;29;20044;-86
2022/01/13 06:15:42;;;;;;;55.83;23.55;;;1.30;99.90;;;;;;4909961;29;20123;-87
2022/01/13 06:18:13;;;;;;;59.22;23.70;;;1.30;99.90;;;;;;4925671;29;20035;-88
2022/01/13 06:20:39;;;;;;;53.45;22.17;;;1.30;99.90;;;;;;4926483;29;20037;-88
2022/01/13 06:23:07;;;;;;;58.00;22.75;;;1.40;99.90;;;;;;4912546;29;20034;-88
2022/01/13 06:25:33;;;;;;;63.28;23.40;;;1.40;99.90;;;;;;4912658;29;20039;-88
2022/01/13 06:27:59;;;;;;;57.67;23.48;;;1.50;99.90;;;;;;4911269;29;20032;-85
2022/01/13 06:30:25;;;;;;;61.78;23.73;;;1.40;99.90;;;;;;4927048;29;20034;-88
2022/01/13 06:32:51;;;;;;;60.63;23.63;;;1.40;99.90;;;;;;4913671;29;20693;-86
2022/01/13 06:35:16;;;;;;;57.28;23.08;;;1.50;99.90;;;;;;4916858;29;20028;-86
2022/01/13 06:37:42;;;;;;;53.10;22.13;;;1.50;99.90;;;;;;4916734;29;20032;-86
2022/01/13 06:40:11;;;;;;;58.92;23.40;;;1.50;99.90;;;;;;4941576;29;20036;-87
2022/01/13 06:42:37;;;;;;;56.00;22.98;;;1.60;99.90;;;;;;4924638;29;20020;-88
2022/01/13 06:45:06;;;;;;;58.17;22.92;;;1.60;99.90;;;;;;4942768;29;20123;-88
2022/01/13 06:47:33;;;;;;;54.88;22.83;;;1.70;99.90;;;;;;4925588;29;20464;-88
2022/01/13 06:49:59;;;;;;;60.42;23.52;;;1.70;99.90;;;;;;4930181;29;20079;-88
2022/01/13 06:52:25;;;;;;;58.08;23.48;;;1.70;99.90;;;;;;4943008;29;20401;-87
2022/01/13 06:54:52;;;;;;;60.80;23.10;;;1.70;99.90;;;;;;4920954;29;20422;-88
2022/01/13 06:57:19;;;;;;;55.22;21.73;;;1.70;99.90;;;;;;4925946;29;20478;-87
2022/01/13 06:59:45;;;;;;;55.75;21.88;;;1.80;99.90;;;;;;4942823;29;20032;-88
2022/01/13 07:02:12;;;;;;;54.78;21.23;;;1.80;99.90;;;;;;4931341;29;20048;-89
2022/01/13 07:04:39;;;;;;;55.80;22.30;;;1.80;99.90;;;;;;4935549;29;20024;-88
2022/01/13 07:07:05;;;;;;;60.55;23.52;;;1.70;99.90;;;;;;4933635;29;20064;-87
2022/01/13 07:09:31;;;;;;;60.08;22.73;;;1.70;99.90;;;;;;4941332;29;20025;-88
2022/01/13 07:11:57;;;;;;;58.15;23.30;;;1.70;99.90;;;;;;4937611;29;20059;-86
2022/01/13 07:14:23;;;;;;;60.15;22.52;;;1.70;99.90;;;;;;4944759;29;20140;-90
2022/01/13 07:16:49;;;;;;;60.92;23.88;;;1.80;99.90;;;;;;4926138;29;20040;-88
2022/01/13 07:19:17;;;;;;;64.10;23.85;;;1.80;99.90;;;;;;4932785;29;20043;-85
2022/01/13 07:21:44;;;;;;;63.20;23.38;;;1.80;99.90;;;;;;4935170;29;20447;-88
2022/01/13 07:24:11;;;;;;;55.78;22.58;;;1.80;99.90;;;;;;4931094;29;20025;-89
2022/01/13 07:26:37;;;;;;;60.15;22.85;;;1.80;99.90;;;;;;4928830;29;20031;-88
2022/01/13 07:29:05;;;;;;;65.80;23.83;;;1.90;99.90;;;;;;4926374;29;20024;-88
2022/01/13 07:31:31;;;;;;;59.05;22.73;;;1.90;99.90;;;;;;4929347;29;20024;-88
2022/01/13 07:33:57;;;;;;;56.65;22.50;;;1.90;99.90;;;;;;4927764;29;20080;-88
2022/01/13 07:36:23;;;;;;;57.97;22.42;;;1.90;99.90;;;;;;4928840;29;20031;-87
2022/01/13 07:38:49;;;;;;;58.28;22.50;;;1.90;99.90;;;;;;4942459;29;20384;-88
2022/01/13 07:41:15;;;;;;;59.15;22.55;;;1.90;99.90;;;;;;4946628;29;20028;-86
2022/01/13 07:43:47;;;;;;;60.58;25.25;;;1.90;99.90;;;;;;4925456;29;20062;-88
2022/01/13 07:46:14;;;;;;;63.80;23.27;;;1.90;99.90;;;;;;4931946;29;20037;-88
2022/01/13 07:48:40;;;;;;;61.03;22.25;;;2.00;99.90;;;;;;4931925;29;20032;-87
2022/01/13 07:51:06;;;;;;;64.15;24.70;;;2.00;99.90;;;;;;4942702;29;20043;-86
2022/01/13 07:53:32;;;;;;;54.03;21.70;;;2.00;99.90;;;;;;4924882;29;20087;-88
2022/01/13 07:55:58;;;;;;;65.68;23.27;;;2.00;99.90;;;;;;4917049;29;20532;-88
2022/01/13 07:58:24;;;;;;;58.47;22.35;;;2.10;99.90;;;;;;4934741;29;20028;-87
2022/01/13 08:00:50;;;;;;;56.92;22.83;;;2.10;99.90;;;;;;4912921;29;20025;-88
2022/01/13 08:03:16;;;;;;;68.40;24.85;;;2.10;99.90;;;;;;4908208;29;20049;-86
2022/01/13 08:05:41;;;;;;;62.65;22.85;;;2.10;99.90;;;;;;4921938;29;20068;-87
2022/01/13 08:08:09;;;;;;;61.92;24.63;;;2.20;99.90;;;;;;4910094;29;20167;-87
2022/01/13 08:10:35;;;;;;;59.15;21.85;;;2.20;99.90;;;;;;4922365;29;20025;-86
2022/01/13 08:13:03;;;;;;;58.50;22.55;;;2.20;99.90;;;;;;4912582;29;20048;-86
2022/01/13 08:15:29;;;;;;;57.92;22.85;;;2.30;99.90;;;;;;4910136;29;20029;-88
2022/01/13 08:21:02;;;;;;;55.90;23.25;;;2.30;99.90;;;;;;4891982;29;20066;-89
2022/01/13 08:23:28;;;;;;;60.70;21.90;;;2.30;99.90;;;;;;4902686;29;20044;-83
2022/01/13 08:25:54;;;;;;;55.42;21.40;;;2.30;99.90;;;;;;4909823;29;20020;-87
2022/01/13 08:28:20;;;;;;;56.88;21.67;;;2.20;99.90;;;;;;4900614;29;20025;-87
2022/01/13 08:30:46;;;;;;;54.22;20.25;;;2.30;99.90;;;;;;4906794;29;20031;-88
2022/01/13 08:33:12;;;;;;;54.22;21.30;;;2.40;99.90;;;;;;4894111;29;20045;-85
2022/01/13 08:35:43;;;;;;;52.65;20.85;;;2.50;99.90;;;;;;4905384;29;20036;-87
2022/01/13 08:38:16;;;;;;;51.95;21.10;;;2.80;99.90;;;;;;4905486;29;20040;-86
2022/01/13 08:40:47;;;;;;;54.08;20.17;;;3.20;99.90;;;;;;4924184;29;20071;-86
2022/01/13 08:43:14;;;;;;;45.60;18.75;;;3.50;99.90;;;;;;4931752;29;20044;-86
2022/01/13 08:45:43;;;;;;;47.33;20.23;;;3.70;99.90;;;;;;4925604;29;20032;-86
2022/01/13 08:48:11;;;;;;;45.05;18.92;;;4.10;99.90;;;;;;4924399;29;20079;-88
2022/01/13 08:50:37;;;;;;;43.53;18.02;;;4.40;99.90;;;;;;4915853;29;20044;-88
2022/01/13 08:53:05;;;;;;;43.83;19.17;;;4.70;99.90;;;;;;4909960;29;20028;-89
2022/01/13 08:55:31;;;;;;;42.45;18.13;;;5.30;99.90;;;;;;4909188;29;20049;-85
2022/01/13 08:57:58;;;;;;;40.92;17.98;;;6.20;99.90;;;;;;4905192;29;20477;-86
2022/01/13 09:00:24;;;;;;;40.85;18.52;;;6.90;99.90;;;;;;4906207;29;20036;-86
2022/01/13 09:02:49;;;;;;;41.65;19.23;;;7.70;99.70;;;;;;4899037;29;20040;-86
2022/01/13 09:05:17;;;;;;;39.65;17.98;;;8.20;98.10;;;;;;4906155;29;20104;-84
2022/01/13 09:07:43;;;;;;;44.53;18.30;;;8.80;96.70;;;;;;4909301;29;20021;-85
2022/01/13 09:10:10;;;;;;;40.83;18.42;;;9.40;95.40;;;;;;4909941;29;20453;-84
2022/01/13 09:12:36;;;;;;;38.20;18.90;;;10.00;94.30;;;;;;4917375;29;20134;-86
2022/01/13 09:15:14;;;;;;;31.80;15.77;;;10.70;92.70;;;;;;4919515;29;20044;-87
2022/01/13 09:17:42;;;;;;;34.72;17.17;;;10.30;91.90;;;;;;4907548;29;20107;-86
2022/01/13 09:20:13;;;;;;;32.10;16.23;;;9.70;92.20;;;;;;4905162;29;20016;-85
2022/01/13 09:22:39;;;;;;;33.17;16.08;;;8.90;93.10;;;;;;4915195;29;20065;-86
2022/01/13 09:25:10;;;;;;;37.83;17.35;;;8.90;93.40;;;;;;4897990;29;20028;-83
2022/01/13 09:27:39;;;;;;;33.92;16.50;;;9.30;93.10;;;;;;4910499;29;20048;-86
2022/01/13 09:30:06;;;;;;;31.95;14.18;;;10.00;92.00;;;;;;4908023;29;20024;-86
2022/01/13 09:32:32;;;;;;;30.05;15.35;;;9.80;91.50;;;;;;4906605;29;20035;-85
2022/01/13 09:34:57;;;;;;;33.78;15.45;;;9.50;91.70;;;;;;4914301;29;20029;-85
2022/01/13 09:37:24;;;;;;;31.80;15.80;;;9.90;91.40;;;;;;4909099;29;20036;-84
2022/01/13 09:39:50;;;;;;;32.80;14.90;;;10.30;90.40;;;;;;4909231;29;20021;-87
2022/01/13 09:42:16;;;;;;;29.13;15.23;;;9.40;91.20;;;;;;4905962;29;20065;-86
2022/01/13 09:44:42;;;;;;;29.52;15.38;;;9.00;91.50;;;;;;4903511;29;20040;-86
2022/01/13 09:47:08;;;;;;;34.83;15.45;;;9.40;91.40;;;;;;4908552;29;20048;-86
2022/01/13 09:49:35;;;;;;;28.63;14.90;;;9.40;91.00;;;;;;4904566;29;20025;-87
2022/01/13 09:52:01;;;;;;;35.03;15.90;;;9.30;91.30;;;;;;4906093;29;20040;-87
2022/01/13 09:54:26;;;;;;;32.40;14.98;;;9.50;91.20;;;;;;4907629;29;20021;-85
2022/01/13 09:56:52;;;;;;;34.17;14.80;;;9.70;90.70;;;;;;4933950;29;20068;-86
2022/01/13 09:59:18;;;;;;;32.78;14.52;;;9.50;90.70;;;;;;4920152;29;20397;-84
2022/01/13 10:01:45;;;;;;;30.00;14.23;;;9.70;90.60;;;;;;4919130;29;20076;-87
2022/01/13 10:04:11;;;;;;;27.33;14.07;;;9.40;90.60;;;;;;4913213;29;20135;-86
2022/01/13 10:06:43;;;;;;;28.48;13.15;;;8.50;91.20;;;;;;4914355;29;20090;-84
2022/01/13 10:09:09;;;;;;;30.15;13.55;;;7.90;92.30;;;;;;4917691;29;20060;-85
2022/01/13 10:11:52;;;;;;;31.65;13.50;;;7.60;93.00;;;;;;4909266;29;20580;-86
2022/01/13 10:16:55;;;;;;;28.80;13.30;;;7.80;93.00;;;;;;4935051;29;20048;-83
2022/01/13 10:19:38;;;;;;;28.95;13.25;;;8.70;92.40;;;;;;4923568;29;20023;-84
2022/01/13 10:22:10;;;;;;;33.60;13.93;;;9.30;91.50;;;;;;4927702;29;20084;-86
2022/01/13 10:24:38;;;;;;;27.80;13.38;;;9.50;90.90;;;;;;4922021;29;20016;-84
2022/01/13 10:27:09;;;;;;;26.90;14.07;;;9.90;90.50;;;;;;4926285;29;20048;-85
2022/01/13 10:29:51;;;;;;;38.97;13.57;;;9.60;90.30;;;;;;4923852;29;20024;-83
2022/01/13 10:32:25;;;;;;;37.92;15.35;;;8.70;91.00;;;;;;4923660;29;20100;-84
2022/01/13 10:35:21;;;;;;;29.88;14.52;;;8.00;91.80;;;;;;4922773;29;20036;-81
2022/01/13 10:37:57;;;;;;;28.15;13.73;;;7.80;92.60;;;;;;4922450;29;20048;-87
2022/01/13 10:40:34;;;;;;;36.22;13.60;;;8.00;92.40;;;;;;4922835;29;20032;-88
2022/01/13 10:46:04;;;;;;;27.27;13.15;;;8.60;91.80;;;;;;4922057;29;20016;-86
2022/01/13 10:48:35;;;;;;;26.52;13.35;;;9.20;91.20;;;;;;4955286;28;20024;-85
2022/01/13 10:51:05;;;;;;;29.20;13.98;;;9.80;90.30;;;;;;4957956;23;20090;-85
2022/01/13 10:53:43;;;;;;;27.17;14.35;;;9.80;90.10;;;;;;4941136;29;20047;-88
2022/01/13 10:56:12;;;;;;;25.75;12.63;;;9.70;90.20;;;;;;4933676;29;20058;-88
2022/01/13 10:58:49;;;;;;;27.02;13.23;;;10.10;90.00;;;;;;4939301;29;20132;-88
2022/01/13 11:01:15;;;;;;;27.15;13.98;;;10.10;89.20;;;;;;4933374;29;20036;-89
2022/01/13 11:03:43;;;;;;;29.02;14.07;;;9.80;89.60;;;;;;4938386;29;20516;-89
2022/01/13 11:06:10;;;;;;;26.30;12.63;;;9.40;90.30;;;;;;4928310;29;20044;-89
2022/01/13 11:08:43;;;;;;;27.20;13.18;;;8.80;90.80;;;;;;4928840;29;20035;-88
2022/01/13 11:11:26;;;;;;;27.90;13.45;;;8.60;91.10;;;;;;4925745;29;20035;-87
2022/01/13 11:14:03;;;;;;;24.20;12.20;;;8.40;91.40;;;;;;4940122;29;20063;-87
2022/01/13 11:16:30;;;;;;;23.52;12.93;;;8.40;91.60;;;;;;4933525;29;20079;-88
2022/01/13 11:18:57;;;;;;;27.88;12.80;;;9.10;91.20;;;;;;4925039;29;20107;-88
2022/01/13 11:21:25;;;;;;;24.75;13.15;;;9.90;90.20;;;;;;4927420;29;20084;-88
2022/01/13 11:23:51;;;;;;;29.83;11.95;;;10.50;88.80;;;;;;4929978;29;20032;-88
2022/01/13 11:26:19;;;;;;;22.20;11.27;;;10.70;87.50;;;;;;4933263;29;20047;-87
2022/01/13 11:28:45;;;;;;;23.95;11.73;;;10.90;87.00;;;;;;4932155;29;20021;-87
2022/01/13 11:31:11;;;;;;;36.67;13.48;;;11.10;86.80;;;;;;4929963;29;20030;-87
2022/01/13 11:33:38;;;;;;;27.40;12.85;;;11.40;85.90;;;;;;4924081;29;20052;-88
2022/01/13 11:36:07;;;;;;;23.05;11.35;;;12.00;84.70;;;;;;4937084;29;20091;-86
2022/01/13 11:38:33;;;;;;;21.05;11.23;;;12.10;83.70;;;;;;4953129;29;20016;-88
2022/01/13 11:41:02;;;;;;;24.48;11.82;;;12.40;82.40;;;;;;4943987;29;20039;-88
2022/01/13 11:43:33;;;;;;;23.90;10.82;;;12.50;81.40;;;;;;4928917;29;20028;-87
2022/01/13 11:46:19;;;;;;;28.13;11.15;;;12.40;81.50;;;;;;4929519;29;20087;-87
2022/01/13 11:49:10;;;;;;;21.55;10.75;;;12.90;80.10;;;;;;4919743;29;20028;-88
2022/01/13 11:51:55;;;;;;;21.35;11.20;;;12.60;80.60;;;;;;4909440;29;20057;-86
2022/01/13 11:54:28;;;;;;;21.02;10.95;;;12.10;81.00;;;;;;4921353;29;20536;-86
2022/01/13 11:57:09;;;;;;;19.80;10.85;;;11.10;82.60;;;;;;4925393;29;20071;-89
2022/01/13 11:59:35;;;;;;;18.88;9.98;;;10.50;84.10;;;;;;4922104;29;20048;-87
2022/01/13 12:02:27;;;;;;;26.77;10.25;;;9.70;85.60;;;;;;4921472;29;20497;-88
2022/01/13 12:05:10;;;;;;;19.45;10.38;;;9.20;87.50;;;;;;4913362;29;20127;-87
2022/01/13 12:07:38;;;;;;;21.65;9.13;;;8.90;88.30;;;;;;4913616;29;20060;-87
2022/01/13 12:10:07;;;;;;;17.70;9.15;;;8.50;89.10;;;;;;4910738;29;20473;-88
2022/01/13 12:12:35;;;;;;;19.58;9.85;;;8.50;90.00;;;;;;4923515;29;20053;-88
2022/01/13 12:15:25;;;;;;;18.92;9.38;;;8.20;90.00;;;;;;4927931;29;20064;-89
2022/01/13 12:17:56;;;;;;;21.80;9.35;;;8.10;90.40;;;;;;4917323;29;20036;-85
2022/01/13 12:20:47;;;;;;;19.60;9.07;;;8.10;90.60;;;;;;4938742;29;20028;-86
2022/01/13 12:23:45;;;;;;;19.30;8.73;;;7.80;90.80;;;;;;4932890;29;20116;-88
2022/01/13 12:26:33;;;;;;;20.35;9.02;;;7.90;91.00;;;;;;4918908;29;20118;-85
2022/01/13 12:29:13;;;;;;;22.98;8.90;;;7.80;91.10;;;;;;4928874;29;20055;-87
2022/01/13 12:32:05;;;;;;;31.50;8.40;;;7.60;91.30;;;;;;4935190;29;20036;-86
2022/01/13 12:34:33;;;;;;;25.60;8.90;;;7.40;91.70;;;;;;4922748;29;20051;-88
2022/01/13 12:37:11;;;;;;;18.40;8.55;;;7.10;92.00;;;;;;4928311;29;20020;-86
2022/01/13 12:40:00;;;;;;;19.80;8.75;;;7.10;92.20;;;;;;4924577;29;20024;-87
2022/01/13 12:42:43;;;;;;;18.90;8.40;;;7.10;92.20;;;;;;4920705;29;20030;-86
2022/01/13 12:45:28;;;;;;;21.73;8.68;;;7.00;92.30;;;;;;4921994;29;20062;-88
2022/01/13 12:47:58;;;;;;;22.25;8.48;;;7.10;92.50;;;;;;4902703;29;20052;-87
2022/01/13 12:50:45;;;;;;;17.73;8.07;;;7.20;92.50;;;;;;4929729;29;20033;-88
2022/01/13 12:53:19;;;;;;;21.27;8.05;;;7.20;92.30;;;;;;4935625;29;20071;-88
2022/01/13 12:56:12;;;;;;;19.10;8.75;;;7.10;92.50;;;;;;4933476;29;20029;-86
2022/01/13 12:58:42;;;;;;;22.40;8.73;;;7.00;92.80;;;;;;4928267;29;20032;-87
2022/01/13 13:01:23;;;;;;;16.33;7.65;;;7.10;92.70;;;;;;4923508;29;20017;-87
2022/01/13 13:04:08;;;;;;;23.05;8.88;;;7.10;92.60;;;;;;4930581;29;20024;-88
2022/01/13 13:06:35;;;;;;;;;;;7.00;92.90;;;;;;4934101;29;20045;-88
2022/01/13 13:09:09;;;;;;;20.70;8.80;;;7.00;92.80;;;;;;4936131;29;19895;-85
2022/01/13 13:11:41;;;;;;;22.90;7.78;;;7.00;92.90;;;;;;4939006;29;20035;-85
2022/01/13 13:14:15;;;;;;;24.70;9.57;;;6.80;93.10;;;;;;4937352;29;20051;-86
2022/01/13 13:16:50;;;;;;;17.45;7.97;;;6.70;93.60;;;;;;4934438;29;20096;-87
2022/01/13 13:19:17;;;;;;;18.73;8.30;;;6.60;93.90;;;;;;4920920;29;20039;-87
2022/01/13 13:21:51;;;;;;;19.80;9.00;;;6.70;93.80;;;;;;4929985;29;20070;-87
2022/01/13 13:24:18;;;;;;;22.48;8.90;;;6.70;93.90;;;;;;4938883;29;20043;-86
2022/01/13 13:26:44;;;;;;;19.02;7.82;;;6.70;94.00;;;;;;4942632;29;20084;-85
2022/01/13 13:29:10;;;;;;;22.27;8.88;;;6.70;93.80;;;;;;4949864;29;20101;-86